createdAt,value
2018-01-15T00:01:27.755Z,19.10
2018-01-15T00:03:54.512Z,21.90
2018-01-15T00:06:21.245Z,19.43
2018-01-15T00:08:47.996Z,20.87
2018-01-15T00:11:14.714Z,20.23
2018-01-15T00:13:41.442Z,19.20
2018-01-15T00:16:08.135Z,19.87
2018-01-15T00:18:34.994Z,19.93
2018-01-15T00:21:01.690Z,19.30
2018-01-15T00:23:28.421Z,19.10
2018-01-15T00:25:55.138Z,20.47
2018-01-15T00:28:22.240Z,20.70
2018-01-15T00:30:48.932Z,18.57
2018-01-15T00:33:16.289Z,17.10
2018-01-15T00:35:43.731Z,15.87
2018-01-15T00:38:10.415Z,16.93
2018-01-15T00:40:37.244Z,18.30
2018-01-15T00:43:03.926Z,17.63
2018-01-15T00:45:30.709Z,18.47
2018-01-15T00:47:57.418Z,17.90
2018-01-15T00:50:24.138Z,18.63
2018-01-15T00:52:50.830Z,19.57
2018-01-15T00:55:17.516Z,17.90
2018-01-15T00:57:44.235Z,17.30
2018-01-15T01:00:11.840Z,18.80
2018-01-15T01:02:38.574Z,17.70
2018-01-15T01:05:05.297Z,17.30
2018-01-15T01:07:31.996Z,16.20
2018-01-15T01:09:58.705Z,17.73
2018-01-15T01:12:25.413Z,17.70
2018-01-15T01:14:52.116Z,17.07
2018-01-15T01:17:18.815Z,16.17
2018-01-15T01:19:45.531Z,15.70
2018-01-15T01:22:12.209Z,16.97
2018-01-15T01:24:38.973Z,17.43
2018-01-15T01:27:05.799Z,17.43
2018-01-15T01:29:32.482Z,17.10
2018-01-15T01:31:59.205Z,16.20
2018-01-15T01:34:25.925Z,16.27
2018-01-15T01:36:52.634Z,16.00
2018-01-15T01:39:19.341Z,16.20
2018-01-15T01:41:46.055Z,15.13
2018-01-15T01:44:12.793Z,15.30
2018-01-15T01:46:39.523Z,16.30
2018-01-15T01:49:06.225Z,15.83
2018-01-15T01:51:32.951Z,14.07
2018-01-15T01:53:59.670Z,15.10
2018-01-15T01:56:26.419Z,16.17
2018-01-15T01:58:53.099Z,15.60
2018-01-15T02:01:19.812Z,15.10
2018-01-15T02:03:46.520Z,13.43
2018-01-15T02:06:13.246Z,15.07
2018-01-15T02:08:39.968Z,16.03
2018-01-15T02:11:06.694Z,15.53
2018-01-15T02:13:33.418Z,15.53
2018-01-15T02:16:00.107Z,14.93
2018-01-15T02:18:26.820Z,15.13
2018-01-15T02:20:53.572Z,16.50
2018-01-15T02:23:20.274Z,15.50
2018-01-15T02:25:47.007Z,15.87
2018-01-15T02:28:13.706Z,16.10
2018-01-15T02:30:40.470Z,16.10
2018-01-15T02:33:07.170Z,16.53
2018-01-15T02:35:33.886Z,16.20
2018-01-15T02:38:00.564Z,17.80
2018-01-15T02:40:27.259Z,18.80
2018-01-15T02:42:53.970Z,17.17
2018-01-15T02:45:20.745Z,17.70
2018-01-15T02:47:47.491Z,17.97
2018-01-15T02:50:14.225Z,16.37
2018-01-15T02:52:40.947Z,16.53
2018-01-15T02:55:07.662Z,16.57
2018-01-15T02:57:34.629Z,16.90
2018-01-15T03:00:01.376Z,16.20
2018-01-15T03:02:28.090Z,16.43
2018-01-15T03:04:54.796Z,16.70
2018-01-15T03:07:21.465Z,16.30
2018-01-15T03:09:48.152Z,16.63
2018-01-15T03:12:14.900Z,18.27
2018-01-15T03:14:41.626Z,16.50
2018-01-15T03:17:09.251Z,18.00
2018-01-15T03:19:35.942Z,16.23
2018-01-15T03:22:02.664Z,17.40
2018-01-15T03:24:29.374Z,17.53
2018-01-15T03:26:56.085Z,17.07
2018-01-15T03:29:22.788Z,16.43
2018-01-15T03:31:49.568Z,16.47
2018-01-15T03:34:16.303Z,16.93
2018-01-15T03:36:43.043Z,18.07
2018-01-15T03:39:09.748Z,16.70
2018-01-15T03:41:36.490Z,16.17
2018-01-15T03:44:03.243Z,17.43
2018-01-15T03:46:29.944Z,17.17
2018-01-15T03:48:56.678Z,15.60
2018-01-15T03:51:23.397Z,16.00
2018-01-15T03:53:50.138Z,16.50
2018-01-15T03:56:16.835Z,15.60
2018-01-15T03:58:43.540Z,18.07
2018-01-15T04:01:10.238Z,16.63
2018-01-15T04:03:37.267Z,16.87
2018-01-15T04:06:04.000Z,17.30
2018-01-15T04:08:30.674Z,15.83
2018-01-15T04:10:57.415Z,16.47
2018-01-15T04:13:24.129Z,17.50
2018-01-15T04:15:50.913Z,17.87
2018-01-15T04:18:17.626Z,18.60
2018-01-15T04:20:44.909Z,17.70
2018-01-15T04:23:11.645Z,17.33
2018-01-15T04:25:38.358Z,15.97
2018-01-15T04:28:05.140Z,18.50
2018-01-15T04:30:31.850Z,16.87
2018-01-15T04:32:58.574Z,17.37
2018-01-15T04:35:25.298Z,16.97
2018-01-15T04:37:52.058Z,17.13
2018-01-15T04:40:18.746Z,17.00
2018-01-15T04:42:45.437Z,18.07
2018-01-15T04:45:12.293Z,16.17
2018-01-15T04:47:38.996Z,16.83
2018-01-15T04:50:05.714Z,16.03
2018-01-15T04:52:32.485Z,16.90
2018-01-15T04:54:59.184Z,16.03
2018-01-15T04:57:25.893Z,16.23
2018-01-15T04:59:52.647Z,15.80
2018-01-15T05:02:19.352Z,16.63
2018-01-15T05:04:46.078Z,18.93
2018-01-15T05:07:12.784Z,16.70
2018-01-15T05:09:39.522Z,16.30
2018-01-15T05:12:06.217Z,16.63
2018-01-15T05:14:32.929Z,15.63
2018-01-15T05:16:59.661Z,16.33
2018-01-15T05:19:26.380Z,16.23
2018-01-15T05:21:53.325Z,16.90
2018-01-15T05:24:20.029Z,17.50
2018-01-15T05:26:46.731Z,16.53
2018-01-15T05:29:13.426Z,16.97
2018-01-15T05:31:40.142Z,18.27
2018-01-15T05:34:06.890Z,17.50
2018-01-15T05:36:33.631Z,17.80
2018-01-15T05:39:00.987Z,15.80
2018-01-15T05:41:27.717Z,18.60
2018-01-15T05:43:54.573Z,16.57
2018-01-15T05:46:21.982Z,17.00
2018-01-15T05:48:49.961Z,16.33
2018-01-15T05:51:16.700Z,18.30
2018-01-15T05:53:43.428Z,18.87
2018-01-15T05:56:10.126Z,18.57
2018-01-15T05:58:36.923Z,17.23
2018-01-15T06:01:03.875Z,18.47
2018-01-15T06:03:30.590Z,18.17
2018-01-15T06:05:57.322Z,18.43
2018-01-15T06:08:24.179Z,18.10
2018-01-15T06:10:50.955Z,18.00
2018-01-15T06:13:17.679Z,17.67
2018-01-15T06:15:44.428Z,17.30
2018-01-15T06:18:11.148Z,16.17
2018-01-15T06:20:37.872Z,17.27
2018-01-15T06:23:04.580Z,18.80
2018-01-15T06:25:31.276Z,17.70
2018-01-15T06:27:57.999Z,18.80
2018-01-15T06:30:24.721Z,18.13
2018-01-15T06:32:51.468Z,18.17
2018-01-15T06:35:18.217Z,17.60
2018-01-15T06:37:44.920Z,19.70
2018-01-15T06:40:11.642Z,18.67
2018-01-15T06:42:38.349Z,18.90
2018-01-15T06:45:05.048Z,17.73
2018-01-15T06:47:31.778Z,18.37
2018-01-15T06:49:58.511Z,16.90
2018-01-15T06:52:25.293Z,16.97
2018-01-15T06:54:51.985Z,16.20
2018-01-15T06:57:18.730Z,16.20
2018-01-15T06:59:45.498Z,16.23
2018-01-15T07:02:12.204Z,15.27
2018-01-15T07:04:39.321Z,15.10
2018-01-15T07:07:06.218Z,14.07
2018-01-15T07:09:32.959Z,14.70
2018-01-15T07:11:59.656Z,14.50
2018-01-15T07:14:26.427Z,14.40
2018-01-15T07:16:53.142Z,15.73
2018-01-15T07:19:20.250Z,14.53
2018-01-15T07:21:47.024Z,13.80
2018-01-15T07:24:13.717Z,14.60
2018-01-15T07:26:40.469Z,14.30
2018-01-15T07:29:07.150Z,15.57
2018-01-15T07:31:33.869Z,14.40
2018-01-15T07:34:00.684Z,15.00
2018-01-15T07:36:27.405Z,15.47
2018-01-15T07:38:54.116Z,15.87
2018-01-15T07:41:20.838Z,16.90
2018-01-15T07:43:47.585Z,15.07
2018-01-15T07:46:14.277Z,15.63
2018-01-15T07:48:40.997Z,16.40
2018-01-15T07:51:07.752Z,16.17
2018-01-15T07:53:34.471Z,16.30
2018-01-15T07:56:02.012Z,16.80
2018-01-15T07:58:28.718Z,17.27
2018-01-15T08:00:55.452Z,16.70
2018-01-15T08:03:22.500Z,16.60
2018-01-15T08:05:49.197Z,16.80
2018-01-15T08:08:15.938Z,15.30
2018-01-15T08:10:42.987Z,16.10
2018-01-15T08:13:09.731Z,15.23
2018-01-15T08:15:36.608Z,17.53
2018-01-15T08:18:03.325Z,16.97
2018-01-15T08:20:30.072Z,16.07
2018-01-15T08:22:57.754Z,17.60
2018-01-15T08:25:24.476Z,17.70
2018-01-15T08:27:51.183Z,17.70
2018-01-15T08:30:17.890Z,17.07
2018-01-15T08:32:44.802Z,17.10
2018-01-15T08:35:11.486Z,18.50
2018-01-15T08:37:38.198Z,17.60
2018-01-15T08:40:05.015Z,16.77
2018-01-15T08:42:31.728Z,17.97
2018-01-15T08:44:58.441Z,17.83
2018-01-15T08:47:25.162Z,18.23
2018-01-15T08:49:51.867Z,17.20
2018-01-15T08:52:18.645Z,17.60
2018-01-15T08:54:45.385Z,19.43
2018-01-15T08:57:12.090Z,18.20
2018-01-15T08:59:38.775Z,18.00
2018-01-15T09:02:05.660Z,19.07
2018-01-15T09:04:32.369Z,20.90
2018-01-15T09:06:59.119Z,19.83
2018-01-15T09:09:25.820Z,17.90
2018-01-15T09:11:52.560Z,19.83
2018-01-15T09:14:19.325Z,19.97
2018-01-15T09:16:46.016Z,19.17
2018-01-15T09:19:12.786Z,17.63
2018-01-15T09:21:39.515Z,18.83
2018-01-15T09:24:06.238Z,18.43
2018-01-15T09:26:33.518Z,19.03
2018-01-15T09:29:01.031Z,19.17
2018-01-15T09:31:27.758Z,17.13
2018-01-15T09:33:54.505Z,17.00
2018-01-15T09:36:21.166Z,17.90
2018-01-15T09:38:47.931Z,19.20
2018-01-15T09:41:14.768Z,17.40
2018-01-15T09:43:41.454Z,17.97
2018-01-15T09:46:09.709Z,17.43
2018-01-15T09:48:36.470Z,18.30
2018-01-15T09:51:03.161Z,18.67
2018-01-15T09:53:29.895Z,17.50
2018-01-15T09:55:56.571Z,17.67
2018-01-15T09:58:23.379Z,17.40
2018-01-15T10:00:50.096Z,16.77
2018-01-15T10:03:16.789Z,15.93
2018-01-15T10:05:43.597Z,17.43
2018-01-15T10:08:10.309Z,19.33
2018-01-15T10:10:37.377Z,17.13
2018-01-15T10:13:04.111Z,16.87
2018-01-15T10:15:30.814Z,17.60
2018-01-15T10:17:57.582Z,16.70
2018-01-15T10:20:24.317Z,18.83
2018-01-15T10:22:51.059Z,17.53
2018-01-15T10:25:17.744Z,18.33
2018-01-15T10:27:44.500Z,18.83
2018-01-15T10:30:11.192Z,15.97
2018-01-15T10:32:37.998Z,18.10
2018-01-15T10:35:04.696Z,18.50
2018-01-15T10:37:31.399Z,18.33
2018-01-15T10:39:59.058Z,18.33
2018-01-15T10:42:25.762Z,18.83
2018-01-15T10:44:52.463Z,17.60
2018-01-15T10:47:19.166Z,18.10
2018-01-15T10:49:45.879Z,18.07
2018-01-15T10:52:12.579Z,18.20
2018-01-15T10:54:39.319Z,17.50
2018-01-15T10:57:06.042Z,19.73
2018-01-15T10:59:32.811Z,19.07
2018-01-15T11:01:59.511Z,16.60
2018-01-15T11:04:26.210Z,18.93
2018-01-15T11:06:53.087Z,17.73
2018-01-15T11:09:19.802Z,18.13
2018-01-15T11:11:46.541Z,18.53
2018-01-15T11:14:13.274Z,17.97
2018-01-15T11:16:40.018Z,18.40
2018-01-15T11:19:06.720Z,19.07
2018-01-15T11:21:33.505Z,19.00
2018-01-15T11:24:00.275Z,19.27
2018-01-15T11:26:26.988Z,17.97
2018-01-15T11:28:53.709Z,18.30
2018-01-15T11:31:20.503Z,18.43
2018-01-15T11:33:47.182Z,18.30
2018-01-15T11:36:14.171Z,19.90
2018-01-15T11:38:40.899Z,20.67
2018-01-15T11:41:07.622Z,18.77
2018-01-15T11:43:34.328Z,21.07
2018-01-15T11:46:01.050Z,20.07
2018-01-15T11:48:27.750Z,18.23
2018-01-15T11:50:54.463Z,18.27
2018-01-15T11:53:21.185Z,18.30
2018-01-15T11:55:47.953Z,16.93
2018-01-15T11:58:14.656Z,17.27
2018-01-15T12:00:41.395Z,18.40
2018-01-15T12:03:08.160Z,19.00
2018-01-15T12:05:34.935Z,18.77
2018-01-15T12:08:01.785Z,19.90
2018-01-15T12:10:28.553Z,17.17
2018-01-15T12:12:55.271Z,17.17
2018-01-15T12:15:22.001Z,17.93
2018-01-15T12:17:48.760Z,18.80
2018-01-15T12:20:15.482Z,17.67
2018-01-15T12:22:42.238Z,18.40
2018-01-15T12:25:08.925Z,17.83
2018-01-15T12:27:35.976Z,18.67
2018-01-15T12:30:03.056Z,17.50
2018-01-15T12:32:29.776Z,18.73
2018-01-15T12:34:56.542Z,18.13
2018-01-15T12:37:23.280Z,18.10
2018-01-15T12:39:49.975Z,18.10
2018-01-15T12:42:16.680Z,19.50
2018-01-15T12:44:43.364Z,18.50
2018-01-15T12:47:10.096Z,18.63
2018-01-15T12:49:36.815Z,19.17
2018-01-15T12:52:03.825Z,18.00
2018-01-15T12:54:30.525Z,18.00
2018-01-15T12:56:57.237Z,18.03
2018-01-15T12:59:23.939Z,18.90
2018-01-15T13:01:50.694Z,17.37
2018-01-15T13:04:17.388Z,17.53
2018-01-15T13:06:49.925Z,17.87
2018-01-15T13:09:16.658Z,18.47
2018-01-15T13:11:43.437Z,16.80
2018-01-15T13:14:10.144Z,19.13
2018-01-15T13:16:36.900Z,18.80
2018-01-15T13:19:03.582Z,17.27
2018-01-15T13:21:30.311Z,18.50
2018-01-15T13:23:57.044Z,19.23
2018-01-15T13:26:23.741Z,18.10
2018-01-15T13:28:50.503Z,19.07
2018-01-15T13:31:17.239Z,18.60
2018-01-15T13:33:43.955Z,17.73
2018-01-15T13:36:10.686Z,18.17
2018-01-15T13:38:37.384Z,17.10
2018-01-15T13:41:04.154Z,17.83
2018-01-15T13:43:30.870Z,19.00
2018-01-15T13:45:57.686Z,17.60
2018-01-15T13:48:24.417Z,16.43
2018-01-15T13:50:51.126Z,16.90
2018-01-15T13:53:17.870Z,17.10
2018-01-15T13:55:44.629Z,15.60
2018-01-15T13:58:11.383Z,16.07
2018-01-15T14:00:38.237Z,16.87
2018-01-15T14:03:04.945Z,15.40
2018-01-15T14:05:31.640Z,16.43
2018-01-15T14:07:58.397Z,14.50
2018-01-15T14:10:25.416Z,16.20
2018-01-15T14:12:52.113Z,16.80
2018-01-15T14:15:18.828Z,15.63
2018-01-15T14:17:45.500Z,16.17
2018-01-15T14:20:12.385Z,17.03
2018-01-15T14:22:39.075Z,17.57
2018-01-15T14:25:05.767Z,17.80
2018-01-15T14:27:32.498Z,16.77
2018-01-15T14:29:59.200Z,16.57
2018-01-15T14:32:25.893Z,17.77
2018-01-15T14:34:52.583Z,16.30
2018-01-15T14:37:19.343Z,16.63
2018-01-15T14:39:46.094Z,17.80
2018-01-15T14:42:12.885Z,16.90
2018-01-15T14:44:39.589Z,17.93
2018-01-15T14:47:06.291Z,17.57
2018-01-15T14:49:33.006Z,18.60
2018-01-15T14:51:59.696Z,16.77
2018-01-15T14:54:26.412Z,16.97
2018-01-15T14:56:53.179Z,13.83
2018-01-15T14:59:19.882Z,15.63
2018-01-15T15:01:46.671Z,16.70
2018-01-15T15:04:13.378Z,15.13
2018-01-15T15:06:40.076Z,14.13
2018-01-15T15:09:06.828Z,15.43
2018-01-15T15:11:33.570Z,15.40
2018-01-15T15:14:00.269Z,14.30
2018-01-15T15:16:27.009Z,13.97
2018-01-15T15:18:53.714Z,14.03
2018-01-15T15:21:20.526Z,13.90
2018-01-15T15:23:47.197Z,14.63
2018-01-15T15:26:13.981Z,13.47
2018-01-15T15:28:40.806Z,14.33
2018-01-15T15:31:07.542Z,13.87
2018-01-15T15:33:34.285Z,14.10
2018-01-15T15:36:01.010Z,13.47
2018-01-15T15:38:27.705Z,12.67
2018-01-15T15:40:54.432Z,14.10
2018-01-15T15:43:21.164Z,12.90
2018-01-15T15:45:47.878Z,11.83
2018-01-15T15:48:14.607Z,10.97
2018-01-15T15:50:41.307Z,9.53
2018-01-15T15:53:08.060Z,9.57
2018-01-15T15:55:34.795Z,8.47
2018-01-15T15:58:01.456Z,7.23
2018-01-15T16:00:28.249Z,6.10
2018-01-15T16:02:54.942Z,4.80
2018-01-15T16:05:21.729Z,5.90
2018-01-15T16:07:48.445Z,4.70
2018-01-15T16:10:15.133Z,4.80
2018-01-15T16:12:41.824Z,3.93
2018-01-15T16:15:08.530Z,4.30
2018-01-15T16:17:35.332Z,4.43
2018-01-15T16:20:02.038Z,3.83
2018-01-15T16:22:31.496Z,3.90
2018-01-15T16:24:58.235Z,4.57
2018-01-15T16:27:25.010Z,4.50
2018-01-15T16:29:51.686Z,5.27
2018-01-15T16:32:18.410Z,4.90
2018-01-15T16:34:45.091Z,4.57
2018-01-15T16:37:11.803Z,3.90
2018-01-15T16:39:38.479Z,4.60
2018-01-15T16:42:05.199Z,4.10
2018-01-15T16:44:31.975Z,4.90
2018-01-15T16:46:58.706Z,4.30
2018-01-15T16:49:25.401Z,4.50
2018-01-15T16:51:52.157Z,4.73
2018-01-15T16:54:18.838Z,4.73
2018-01-15T16:56:45.577Z,4.30
2018-01-15T16:59:12.243Z,4.50
2018-01-15T17:01:38.960Z,4.60
2018-01-15T17:04:05.858Z,4.20
2018-01-15T17:06:32.537Z,4.50
2018-01-15T17:08:59.239Z,4.37
2018-01-15T17:11:25.920Z,9.73
2018-01-15T17:13:52.675Z,6.27
2018-01-15T17:16:19.387Z,5.50
2018-01-15T17:18:46.097Z,4.90
2018-01-15T17:21:12.823Z,4.73
2018-01-15T17:23:39.571Z,4.67
2018-01-15T17:26:06.266Z,4.30
2018-01-15T17:28:32.980Z,4.43
2018-01-15T17:31:00.268Z,4.97
2018-01-15T17:33:27.188Z,4.37
2018-01-15T17:35:53.874Z,5.40
2018-01-15T17:38:20.640Z,4.90
2018-01-15T17:40:47.348Z,4.87
2018-01-15T17:43:14.815Z,5.20
2018-01-15T17:45:41.607Z,5.50
2018-01-15T17:48:08.310Z,4.90
2018-01-15T17:50:35.288Z,4.63
2018-01-15T17:53:01.996Z,5.53
2018-01-15T17:55:28.717Z,4.93
2018-01-15T17:57:56.201Z,5.50
2018-01-15T18:00:22.979Z,5.80
2018-01-15T18:02:49.742Z,6.17
2018-01-15T18:05:16.488Z,5.40
2018-01-15T18:07:43.162Z,5.90
2018-01-15T18:10:09.923Z,6.17
2018-01-15T18:12:36.641Z,5.20
2018-01-15T18:15:03.376Z,6.27
2018-01-15T18:17:30.185Z,5.90
2018-01-15T18:19:56.926Z,5.60
2018-01-15T18:22:23.645Z,6.83
2018-01-15T18:24:50.381Z,6.70
2018-01-15T18:27:17.154Z,5.90
2018-01-15T18:29:43.921Z,6.60
2018-01-15T18:32:10.665Z,6.27
2018-01-15T18:34:37.398Z,6.53
2018-01-15T18:37:04.095Z,7.00
2018-01-15T18:39:30.826Z,6.67
2018-01-15T18:41:57.565Z,7.00
2018-01-15T18:44:24.306Z,6.33
2018-01-15T18:46:51.009Z,6.37
2018-01-15T18:49:17.718Z,6.60
2018-01-15T18:51:45.332Z,6.97
2018-01-15T18:54:12.045Z,6.43
2018-01-15T18:56:38.796Z,6.10
2018-01-15T18:59:05.586Z,5.87
2018-01-15T19:01:32.279Z,6.80
2018-01-15T19:03:59.352Z,5.67
2018-01-15T19:06:26.062Z,6.80
2018-01-15T19:08:52.787Z,6.77
2018-01-15T19:11:19.554Z,5.53
2018-01-15T19:13:46.346Z,5.60
2018-01-15T19:16:13.152Z,6.40
2018-01-15T19:18:39.937Z,5.53
2018-01-15T19:21:06.635Z,6.03
2018-01-15T19:23:33.322Z,4.67
2018-01-15T19:26:00.081Z,5.70
2018-01-15T19:28:26.958Z,6.23
2018-01-15T19:30:53.673Z,5.90
2018-01-15T19:33:21.265Z,5.97
2018-01-15T19:35:51.763Z,5.07
2018-01-15T19:38:29.627Z,5.73
2018-01-15T19:40:56.400Z,5.27
2018-01-15T19:43:25.752Z,5.47
2018-01-15T19:45:58.066Z,5.10
2018-01-15T19:48:39.844Z,4.90
2018-01-15T19:51:12.299Z,3.80
2018-01-15T19:53:44.749Z,2.80
2018-01-15T19:56:18.228Z,3.27
2018-01-15T19:59:04.794Z,3.70
2018-01-15T20:01:47.502Z,3.27
2018-01-15T20:04:20.220Z,2.80
2018-01-15T20:06:52.594Z,3.17
2018-01-15T20:09:25.067Z,1.87
2018-01-15T20:11:52.491Z,1.67
2018-01-15T20:14:19.283Z,1.50
2018-01-15T20:16:46.006Z,1.57
2018-01-15T20:19:12.760Z,1.80
2018-01-15T20:21:40.152Z,1.60
2018-01-15T20:24:06.862Z,1.80
2018-01-15T20:26:33.627Z,1.70
2018-01-15T20:29:01.325Z,1.50
2018-01-15T20:31:28.030Z,1.87
2018-01-15T20:33:54.798Z,1.63
2018-01-15T20:36:22.467Z,2.00
2018-01-15T20:38:49.334Z,1.90
2018-01-15T20:41:16.014Z,1.90
2018-01-15T20:43:42.730Z,1.73
2018-01-15T20:46:09.567Z,1.47
2018-01-15T20:48:36.266Z,1.80
2018-01-15T20:51:03.109Z,1.70
2018-01-15T20:53:29.956Z,1.83
2018-01-15T20:55:56.686Z,2.00
2018-01-15T20:58:23.387Z,1.87
2018-01-15T21:00:50.296Z,1.70
2018-01-15T21:03:17.090Z,2.10
2018-01-15T21:05:43.805Z,1.60
2018-01-15T21:08:11.928Z,1.80
2018-01-15T21:10:39.691Z,2.03
2018-01-15T21:13:07.491Z,2.20
2018-01-15T21:15:34.263Z,1.70
2018-01-15T21:18:01.278Z,2.23
2018-01-15T21:20:28.137Z,1.87
2018-01-15T21:22:54.846Z,1.77
2018-01-15T21:25:21.592Z,1.47
2018-01-15T21:27:48.496Z,1.70
2018-01-15T21:30:15.249Z,1.90
2018-01-15T21:32:42.026Z,1.50
2018-01-15T21:35:08.751Z,1.90
2018-01-15T21:37:35.663Z,1.50
2018-01-15T21:40:02.389Z,1.97
2018-01-15T21:42:29.968Z,1.60
2018-01-15T21:44:56.673Z,1.60
2018-01-15T21:47:23.360Z,2.00
2018-01-15T21:49:50.054Z,1.90
2018-01-15T21:52:16.776Z,2.00
2018-01-15T21:54:43.491Z,2.07
2018-01-15T21:57:10.240Z,1.50
2018-01-15T21:59:37.294Z,1.60
2018-01-15T22:02:04.052Z,1.73
2018-01-15T22:04:30.772Z,1.80
2018-01-15T22:06:57.513Z,1.40
2018-01-15T22:09:24.208Z,1.63
2018-01-15T22:11:50.934Z,1.30
2018-01-15T22:14:17.726Z,1.57
2018-01-15T22:16:44.381Z,1.10
2018-01-15T22:19:11.097Z,1.33
2018-01-15T22:21:37.801Z,1.40
2018-01-15T22:24:04.495Z,1.33
2018-01-15T22:26:31.338Z,1.50
2018-01-15T22:28:58.112Z,1.10
2018-01-15T22:31:24.858Z,1.00
2018-01-15T22:33:51.601Z,1.17
2018-01-15T22:36:18.316Z,1.07
2018-01-15T22:38:45.162Z,1.20
2018-01-15T22:41:11.873Z,1.10
2018-01-15T22:43:38.593Z,1.30
2018-01-15T22:46:05.306Z,1.27
2018-01-15T22:48:32.058Z,0.80
2018-01-15T22:50:58.752Z,1.17
2018-01-15T22:53:25.461Z,1.13
2018-01-15T22:55:52.182Z,0.90
2018-01-15T22:58:18.879Z,1.07
2018-01-15T23:00:45.623Z,1.00
2018-01-15T23:03:12.365Z,1.03
2018-01-15T23:05:39.062Z,1.30
2018-01-15T23:08:05.950Z,0.97
2018-01-15T23:10:32.677Z,1.10
2018-01-15T23:12:59.461Z,0.80
2018-01-15T23:15:26.185Z,1.47
2018-01-15T23:17:53.313Z,1.03
2018-01-15T23:20:20.215Z,1.20
2018-01-15T23:22:47.012Z,0.80
2018-01-15T23:25:13.761Z,1.03
2018-01-15T23:27:40.469Z,0.73
2018-01-15T23:30:07.234Z,0.70
2018-01-15T23:32:33.943Z,1.20
2018-01-15T23:35:00.768Z,1.20
2018-01-15T23:37:27.444Z,0.90
2018-01-15T23:39:54.161Z,0.90
2018-01-15T23:42:20.937Z,1.10
2018-01-15T23:44:47.657Z,0.93
2018-01-15T23:47:14.389Z,1.07
2018-01-15T23:49:41.073Z,1.33
2018-01-15T23:52:07.865Z,1.27
2018-01-15T23:54:35.221Z,0.77
2018-01-15T23:57:02.769Z,0.90
2018-01-15T23:59:29.671Z,1.10
